Beatty, Nevada Weather observations

Data are for observation ending at time listed.
 Day   Time    Ave.   Ave.  Ave.  Vector   Max.   Stn.    Total    Solar   Ave.  
  of    of     Air    Rel.  Wind   Wind    Wind   Baro.  Precip.   Rad.    Soil  
Year   Day     Temp.  Hum.  Speed  Dir.    Gust   Pres.                    Temp. 
2017   (PST)    F      %     mph   deg.    mph     mb.     in.     W/m2     F   
------------------------------------------------------------------------------
  35   21:10   44.4    71    3.2    61      7.2   902.3    0.00       0    50.3
  35   21:20   44.7    70    2.3    47      5.9   902.4    0.00       0    50.3
  35   21:30   44.7    70    3.3     8      5.6   902.5    0.00       0    50.3
  35   21:40   44.4    71    3.6   352      5.6   902.5    0.00       0    50.3
  35   21:50   44.0    72    4.3     2      6.9   902.6    0.00       0    50.3
  35   22:00   43.9    72    3.5     1      6.2   902.6    0.00       0    50.3
  35   22:10   44.9    70    2.8    37      7.1   902.6    0.00       0    50.3
  35   22:20   45.2    68    3.2    26      7.7   902.7    0.00       0    50.3
  35   22:30   43.9    71    4.3     4      6.6   902.9    0.00       0    50.2
  35   22:40   42.2    75    3.9   357      6.6   903.0    0.00       0    50.2
  35   22:50   42.4    74    3.9   353      6.3   903.0    0.00       0    50.2
  35   23:00   42.5    74    3.5     8      6.2   903.0    0.00       0    50.2
  35   23:10   43.8    72    2.6    25      6.0   902.8    0.00       0    50.2
  35   23:20   44.5    70    3.1    24      5.8   902.7    0.00       0    50.2
  35   23:30   43.0    72    4.8    17      8.7   902.6    0.00       0    50.2
  35   23:40   41.9    75    3.2    28      8.3   902.6    0.00       0    50.2
  35   23:50   40.9    77    3.7    22      7.1   902.6    0.00       0    50.2
  36    0:00   41.0    78    3.1    27      7.1   902.6    0.00       0    50.2
  36    0:10   42.9    74    3.4    21      6.6   902.5    0.00       0    50.2
  36    0:20   43.9    71    2.9    11      5.0   902.6    0.00       0    50.1
  36    0:30   43.3    72    4.0     6      7.0   902.6    0.00       0    50.1
  36    0:40   42.6    74    3.6     9      7.1   902.6    0.00       0    50.1
  36    0:50   43.0    73    2.9   360      5.3   902.6    0.00       0    50.1
  36    1:00   41.8    75    4.2   348      6.6   902.6    0.00       0    50.1
  36    1:10   40.5    78    5.6   349      7.3   902.6    0.00       0    50.1
  36    1:20   39.6    79    6.0   356      9.0   902.6    0.00       0    50.1
  36    1:30   39.2    80    3.1    21      8.7   902.6    0.00       0    50.0
  36    1:40   40.6    77    4.0    23      7.3   902.5    0.00       0    50.0
  36    1:50   41.1    75    4.8    22      7.9   902.5    0.00       0    50.0
  36    2:00   39.9    77    4.1    21      8.6   902.5    0.00       0    50.0
  36    2:10   38.9    80    4.1    24      9.3   902.4    0.00       0    49.9
  36    2:20   39.1    80    4.1    27      7.5   902.3    0.00       0    49.9
  36    2:30   39.6    78    4.3    22      8.3   902.3    0.00       0    49.9
  36    2:40   39.9    78    5.0    21      8.9   902.2    0.00       0    49.9
  36    2:50   40.4    77    3.0    46      8.0   902.1    0.00       0    49.8
  36    3:00   40.7    76    3.8    23      9.3   902.1    0.00       0    49.8
  36    3:10   39.4    78    5.0    22      9.9   902.0    0.00       0    49.8
  36    3:20   38.9    79    5.0    20      9.8   901.8    0.00       0    49.8
  36    3:30   38.6    80    4.6    18      9.9   901.8    0.00       0    49.7
  36    3:40   39.0    79    5.6    21      9.4   901.9    0.00       0    49.7
  36    3:50   38.1    79    5.1    22      8.8   901.8    0.00       0    49.7
  36    4:00   36.2    83    4.9    22      8.4   901.9    0.00       0    49.7
  36    4:10   36.3    83    5.5    27      9.2   901.7    0.00       0    49.6
  36    4:20   36.0    84    5.7    25     12.0   901.6    0.00       0    49.6
  36    4:30   36.4    84    4.3    18      9.3   901.6    0.00       0    49.6
  36    4:40   36.1    84    3.1    34      7.1   901.6    0.00       0    49.5
  36    4:50   36.1    84    2.3    38      6.7   901.7    0.00       0    49.5
  36    5:00   35.5    85    4.1    11      7.7   901.5    0.00       0    49.4
  36    5:10   35.9    84    4.4    23      9.5   901.7    0.00       0    49.4
  36    5:20   36.1    84    5.1    22     11.8   901.7    0.00       0    49.4
  36    5:30   36.3    84    4.9    22      8.7   901.7    0.00       0    49.3
  36    5:40   35.7    84    4.2    23      8.2   901.8    0.00       0    49.3
  36    5:50   35.1    86    4.2    17      8.6   901.8    0.00       0    49.3
  36    6:00   36.0    84    4.6    20      7.5   901.9    0.00       0    49.2
  36    6:10   35.7    85    4.2    21      7.7   901.7    0.00       0    49.2
  36    6:20   36.0    84    4.3    10      8.1   901.8    0.00       0    49.2
  36    6:30   36.4    84    4.8   359      9.1   902.0    0.00       0    49.1
  36    6:40   36.4    84    5.1     8      8.6   902.0    0.00       1    49.1
  36    6:50   36.1    84    3.4    27      6.9   902.0    0.00       4    49.1
  36    7:00   35.5    86    3.5    27      6.6   901.9    0.00       9    49.0
  36    7:10   35.7    86    3.2    23      8.1   902.0    0.00      15    49.0
  36    7:20   36.0    85    2.1    33      5.6   902.1    0.00      21    48.9
  36    7:30   36.1    85    3.3    24      6.6   902.2    0.00      29    48.9
  36    7:40   37.1    84    2.9    32      6.1   902.3    0.00      37    48.9
  36    7:50   37.9    81    4.7    24      9.6   902.3    0.00      60    48.9
  36    8:00   38.2    81    5.0    19      9.6   902.5    0.00      90    48.8
  36    8:10   38.5    81    5.6    26      9.9   902.4    0.00     103    48.8
  36    8:20   39.5    80    5.9    24      9.4   902.4    0.00     165    48.7
  36    8:30   40.8    77    4.8    26      9.8   902.4    0.00     191    48.7
  36    8:40   41.4    75    6.0    27     10.3   902.4    0.00     203    48.7
  36    8:50   42.5    73    4.2    25      9.1   902.5    0.00     221    48.7
  36    9:00   44.0    71    2.9    55      7.2   902.5    0.00     246    48.6
  36    9:10   45.2    69    3.3    55      7.0   902.4    0.00     288    48.6
  36    9:20   46.0    67    3.6    61      8.4   902.4    0.00     279    48.5
  36    9:30   47.1    66    2.7    48      6.6   902.4    0.00     284    48.5
  36    9:40   48.0    63    2.4    58      6.0   902.3    0.00     289    48.5
  36    9:50   48.7    62    3.1    68      6.7   902.3    0.00     321    48.5
  36   10:00   49.3    60    3.1    81      5.9   902.2    0.00     346    48.5
  36   10:10   50.3    58    2.8    73      5.3   902.0    0.00     392    48.5
  36   10:20   51.4    56    2.1    69      4.9   902.0    0.00     399    48.4
  36   10:30   52.3    54    2.2    73      5.2   901.8    0.00     433    48.4
  36   10:40   53.3    52    1.8    30      4.2   901.7    0.00     480    48.4
  36   10:50   54.2    51    1.6   258      3.6   901.5    0.00     467    48.4
  36   11:00   54.3    50    2.7   238      4.8   901.5    0.00     464    48.4
  36   11:10   54.7    50    3.5   211      7.4   901.3    0.00     484    48.3
  36   11:20   55.6    48    4.4   204      8.9   901.1    0.00     394    48.3
  36   11:30   55.2    48    5.7   208      9.6   900.8    0.00     380    48.3
  36   11:40   55.1    48    4.5   204      8.3   900.6    0.00     238    48.3
  36   11:50   55.2    48    3.7   222      6.3   900.2    0.00     280    48.4
  36   12:00   55.1    48    4.3   229      8.2   899.8    0.00     250    48.4
  36   12:10   55.2    48    5.3   221      8.3   899.3    0.00     257    48.4
  36   12:20   55.3    47    6.6   218     10.1   899.1    0.00     217    48.4
  36   12:30   55.3    47    5.5   216      8.9   898.8    0.00     209    48.4
  36   12:40   55.2    47    5.9   224      9.9   898.5    0.00     216    48.5
  36   12:50   55.9    46    5.1   213      9.1   898.3    0.00     308    48.5
  36   13:00   55.9    45    7.1   220     12.1   898.1    0.00     244    48.5
  36   13:10   56.1    44    7.3   220     13.2   897.9    0.00     262    48.6
  36   13:20   56.3    44    8.8   214     13.1   897.9    0.00     216    48.6
  36   13:30   56.2    44    8.7   214     14.2   897.8    0.00     196    48.7
  36   13:40   56.1    44    9.3   210     15.3   897.6    0.00     210    48.7
  36   13:50   56.3    43    7.9   202     12.6   897.5    0.00     196    48.7
  36   14:00   56.4    43    8.6   215     13.7   897.6    0.00     229    48.7
  36   14:10   56.4    43    8.9   212     14.8   897.7    0.00     201    48.8
  36   14:20   56.8    42    7.1   200     12.3   897.6    0.00     199    48.8
  36   14:30   56.5    43    7.8   201     12.2   897.5    0.00     204    48.8
  36   14:40   56.5    42    8.2   200     12.6   897.4    0.00     167    48.9
  36   14:50   56.3    43    7.1   198     12.5   897.3    0.00     124    48.9
  36   15:00   56.1    44    7.4   202     12.9   897.2    0.00     119    48.9
  36   15:10   55.9    44    8.8   207     14.2   897.3    0.00     116    49.0
  36   15:20   55.8    45    7.3   202     11.7   897.3    0.00      98    49.0
  36   15:30   55.8    45    6.4   205     10.7   897.3    0.00     109    49.0
  36   15:40   55.7    45    7.3   213     12.9   897.3    0.00      93    49.1
  36   15:50   55.7    46    5.8   194     11.8   897.4    0.00     102    49.1
  36   16:00   55.7    46    6.0   210      9.3   897.3    0.00      79    49.1
  36   16:10   55.9    46    4.7   212      7.2   897.3    0.00      87    49.1
  36   16:20   55.4    46    3.3   234      6.3   897.3    0.00      51    49.2
  36   16:30   55.2    47    2.8   209      4.7   897.2    0.00      33    49.2
  36   16:40   54.8    48    3.5   214      5.1   897.1    0.00      25    49.2
  36   16:50   54.6    49    4.2   216      6.4   896.9    0.00      34    49.2
  36   17:00   54.4    49    3.8   222      6.8   896.8    0.00      13    49.3
  36   17:10   54.1    50    2.2   224      3.9   896.7    0.00       6    49.3
  36   17:20   53.7    51    1.8   254      3.9   896.7    0.00       5    49.3
  36   17:30   53.1    52    0.9   262      2.8   896.6    0.00       0    49.3
  36   17:40   52.6    53    0.2   204      1.6   896.6    0.00       0    49.4
  36   17:50   51.9    54    0.2   281      0.9   896.7    0.00       0    49.4
  36   18:00   51.1    56    0.0   296      0.4   896.6    0.00       0    49.4
  36   18:10   50.0    60    0.6   328      1.6   896.6    0.00       0    49.4
  36   18:20   49.4    60    0.0    42      0.8   896.5    0.00       0    49.4
  36   18:30   48.5    63    0.0     0      0.0   896.5    0.00       0    49.4
  36   18:40   47.7    64    0.1   332      1.8   896.4    0.00       0    49.4
  36   18:50   46.9    66    1.2    26      2.3   896.4    0.00       0    49.4
  36   19:00   46.4    66    0.9    41      1.8   896.2    0.00       0    49.4
  36   19:10   45.9    66    0.6    15      1.7   896.1    0.00       0    49.4
  36   19:20   44.5    68    2.1    79      3.7   896.2    0.00       0    49.5
  36   19:30   44.4    68    1.5    41      2.9   896.0    0.00       0    49.5
  36   19:40   43.2    70    0.9   335      1.8   896.2    0.00       0    49.5
  36   19:50   43.1    71    1.4    44      2.8   896.2    0.00       0    49.5
  36   20:00   43.6    70    1.3    46      2.9   896.0    0.00       0    49.5
  36   20:10   42.9    71    1.7    25      2.9   896.2    0.00       0    49.5
  36   20:20   45.4    66    2.2   135      4.7   895.9    0.00       0    49.5
  36   20:30   47.3    61    2.5   188      5.6   895.7    0.00       0    49.5
  36   20:40   47.0    62    0.9   211      2.3   895.7    0.00       0    49.5
  36   20:50   46.8    62    1.4   128      5.0   895.6    0.00       0    49.5
  36   21:00   46.9    61    1.8    48      4.2   895.4    0.00       0    49.5

Return to Beatty, Nevada graphs page.


Western Regional Climate Center,wrcc@dri.edu